sensor_id;sensor_type;location;lat;lon;timestamp;temperature;humidity
26982;DHT22;14533;50.848;4.380;2022-11-04T00:01:45;10.90;99.90
26982;DHT22;14533;50.848;4.380;2022-11-04T00:04:13;11.00;99.90
26982;DHT22;14533;50.848;4.380;2022-11-04T00:06:40;10.90;99.90
26982;DHT22;14533;50.848;4.380;2022-11-04T00:09:10;10.90;99.90
26982;DHT22;14533;50.848;4.380;2022-11-04T00:11:36;11.10;99.90
26982;DHT22;14533;50.848;4.380;2022-11-04T00:14:21;11.10;99.90
26982;DHT22;14533;50.848;4.380;2022-11-04T00:16:48;10.90;99.90
26982;DHT22;14533;50.848;4.380;2022-11-04T00:19:32;10.90;99.90
26982;DHT22;14533;50.848;4.380;2022-11-04T00:22:18;10.90;99.90
26982;DHT22;14533;50.848;4.380;2022-11-04T00:25:04;10.90;99.90
26982;DHT22;14533;50.848;4.380;2022-11-04T00:27:48;11.00;99.90
26982;DHT22;14533;50.848;4.380;2022-11-04T00:30:33;11.00;99.90
26982;DHT22;14533;50.848;4.380;2022-11-04T00:32:58;10.90;99.90
26982;DHT22;14533;50.848;4.380;2022-11-04T00:35:50;10.80;99.90
26982;DHT22;14533;50.848;4.380;2022-11-04T00:38:16;10.90;99.90
26982;DHT22;14533;50.848;4.380;2022-11-04T00:40:43;10.80;99.90
26982;DHT22;14533;50.848;4.380;2022-11-04T00:43:09;10.70;99.90
26982;DHT22;14533;50.848;4.380;2022-11-04T00:45:35;10.80;99.90
26982;DHT22;14533;50.848;4.380;2022-11-04T00:48:00;10.70;99.90
26982;DHT22;14533;50.848;4.380;2022-11-04T00:50:26;10.60;99.90
26982;DHT22;14533;50.848;4.380;2022-11-04T00:52:58;10.70;99.90
26982;DHT22;14533;50.848;4.380;2022-11-04T00:55:24;10.80;99.90
26982;DHT22;14533;50.848;4.380;2022-11-04T00:57:50;10.80;99.90
26982;DHT22;14533;50.848;4.380;2022-11-04T01:00:16;10.80;99.90
26982;DHT22;14533;50.848;4.380;2022-11-04T01:02:42;10.70;99.90
26982;DHT22;14533;50.848;4.380;2022-11-04T01:05:08;10.70;99.90
26982;DHT22;14533;50.848;4.380;2022-11-04T01:07:34;10.80;99.90
26982;DHT22;14533;50.848;4.380;2022-11-04T01:10:00;10.70;99.90
26982;DHT22;14533;50.848;4.380;2022-11-04T01:12:26;10.70;99.90
26982;DHT22;14533;50.848;4.380;2022-11-04T01:14:52;10.70;99.90
26982;DHT22;14533;50.848;4.380;2022-11-04T01:17:17;10.80;99.90
26982;DHT22;14533;50.848;4.380;2022-11-04T01:19:43;10.80;99.90
26982;DHT22;14533;50.848;4.380;2022-11-04T01:22:09;10.80;99.90
26982;DHT22;14533;50.848;4.380;2022-11-04T01:24:34;10.80;99.90
26982;DHT22;14533;50.848;4.380;2022-11-04T01:27:01;10.60;99.90
26982;DHT22;14533;50.848;4.380;2022-11-04T01:29:26;10.40;99.90
26982;DHT22;14533;50.848;4.380;2022-11-04T01:31:52;10.40;99.90
26982;DHT22;14533;50.848;4.380;2022-11-04T01:34:18;10.50;99.90
26982;DHT22;14533;50.848;4.380;2022-11-04T01:36:43;10.60;99.90
26982;DHT22;14533;50.848;4.380;2022-11-04T01:39:10;10.70;99.90
26982;DHT22;14533;50.848;4.380;2022-11-04T01:41:37;10.60;99.90
26982;DHT22;14533;50.848;4.380;2022-11-04T01:47:15;10.40;99.90
26982;DHT22;14533;50.848;4.380;2022-11-04T01:49:43;10.40;99.90
26982;DHT22;14533;50.848;4.380;2022-11-04T01:52:15;10.40;99.90
26982;DHT22;14533;50.848;4.380;2022-11-04T01:54:43;10.60;99.90
26982;DHT22;14533;50.848;4.380;2022-11-04T01:57:17;10.60;99.90
26982;DHT22;14533;50.848;4.380;2022-11-04T01:59:43;10.60;99.90
26982;DHT22;14533;50.848;4.380;2022-11-04T02:02:09;10.40;99.90
26982;DHT22;14533;50.848;4.380;2022-11-04T02:04:36;10.30;99.90
26982;DHT22;14533;50.848;4.380;2022-11-04T02:07:05;10.30;99.90
26982;DHT22;14533;50.848;4.380;2022-11-04T02:09:34;10.20;99.90
26982;DHT22;14533;50.848;4.380;2022-11-04T02:12:00;10.20;99.90
26982;DHT22;14533;50.848;4.380;2022-11-04T02:14:47;10.20;99.90
26982;DHT22;14533;50.848;4.380;2022-11-04T02:30:49;10.30;99.90
26982;DHT22;14533;50.848;4.380;2022-11-04T02:38:53;10.30;99.90
26982;DHT22;14533;50.848;4.380;2022-11-04T02:41:57;10.20;99.90
26982;DHT22;14533;50.848;4.380;2022-11-04T02:44:34;10.50;99.90
26982;DHT22;14533;50.848;4.380;2022-11-04T02:47:06;10.40;99.90
26982;DHT22;14533;50.848;4.380;2022-11-04T02:50:04;10.40;99.90
26982;DHT22;14533;50.848;4.380;2022-11-04T02:52:56;10.40;99.90
26982;DHT22;14533;50.848;4.380;2022-11-04T02:55:29;10.50;99.90
26982;DHT22;14533;50.848;4.380;2022-11-04T02:57:59;10.40;99.90
26982;DHT22;14533;50.848;4.380;2022-11-04T03:00:27;10.40;99.90
26982;DHT22;14533;50.848;4.380;2022-11-04T03:03:03;10.30;99.90
26982;DHT22;14533;50.848;4.380;2022-11-04T03:05:34;10.30;99.90
26982;DHT22;14533;50.848;4.380;2022-11-04T03:08:05;10.40;99.90
26982;DHT22;14533;50.848;4.380;2022-11-04T03:15:57;10.50;99.90
26982;DHT22;14533;50.848;4.380;2022-11-04T03:18:33;10.50;99.90
26982;DHT22;14533;50.848;4.380;2022-11-04T03:21:04;10.60;99.90
26982;DHT22;14533;50.848;4.380;2022-11-04T03:23:31;10.60;99.90
26982;DHT22;14533;50.848;4.380;2022-11-04T03:26:09;10.50;99.90
26982;DHT22;14533;50.848;4.380;2022-11-04T03:31:03;10.70;99.90
26982;DHT22;14533;50.848;4.380;2022-11-04T03:33:38;10.60;99.90
26982;DHT22;14533;50.848;4.380;2022-11-04T03:36:05;10.60;99.90
26982;DHT22;14533;50.848;4.380;2022-11-04T03:38:33;10.70;99.90
26982;DHT22;14533;50.848;4.380;2022-11-04T03:41:02;10.70;99.90
26982;DHT22;14533;50.848;4.380;2022-11-04T03:43:31;10.60;99.90
26982;DHT22;14533;50.848;4.380;2022-11-04T03:45:59;10.50;99.90
26982;DHT22;14533;50.848;4.380;2022-11-04T03:48:25;10.50;99.90
26982;DHT22;14533;50.848;4.380;2022-11-04T03:50:51;10.40;99.90
26982;DHT22;14533;50.848;4.380;2022-11-04T03:53:19;10.40;99.90
26982;DHT22;14533;50.848;4.380;2022-11-04T04:04:32;10.60;99.90
26982;DHT22;14533;50.848;4.380;2022-11-04T04:06:34;10.60;99.90
26982;DHT22;14533;50.848;4.380;2022-11-04T04:09:12;10.60;99.90
26982;DHT22;14533;50.848;4.380;2022-11-04T04:12:00;10.60;99.90
26982;DHT22;14533;50.848;4.380;2022-11-04T04:14:44;10.60;99.90
26982;DHT22;14533;50.848;4.380;2022-11-04T04:17:31;10.70;99.90
26982;DHT22;14533;50.848;4.380;2022-11-04T04:20:25;10.70;99.90
26982;DHT22;14533;50.848;4.380;2022-11-04T04:25:27;10.70;99.90
26982;DHT22;14533;50.848;4.380;2022-11-04T04:28:15;10.80;99.90
26982;DHT22;14533;50.848;4.380;2022-11-04T04:30:43;10.80;99.90
26982;DHT22;14533;50.848;4.380;2022-11-04T04:33:12;10.80;99.90
26982;DHT22;14533;50.848;4.380;2022-11-04T04:35:55;10.80;99.90
26982;DHT22;14533;50.848;4.380;2022-11-04T04:38:30;11.00;99.90
26982;DHT22;14533;50.848;4.380;2022-11-04T04:41:21;10.90;99.90
26982;DHT22;14533;50.848;4.380;2022-11-04T04:44:24;11.00;99.90
26982;DHT22;14533;50.848;4.380;2022-11-04T04:47:38;11.10;99.90
26982;DHT22;14533;50.848;4.380;2022-11-04T04:50:08;11.10;99.90
26982;DHT22;14533;50.848;4.380;2022-11-04T04:52:37;11.00;99.90
26982;DHT22;14533;50.848;4.380;2022-11-04T04:55:04;11.00;99.90
26982;DHT22;14533;50.848;4.380;2022-11-04T04:57:31;11.00;99.90
26982;DHT22;14533;50.848;4.380;2022-11-04T04:59:58;11.00;99.90
26982;DHT22;14533;50.848;4.380;2022-11-04T05:02:23;11.10;99.90
26982;DHT22;14533;50.848;4.380;2022-11-04T05:04:49;11.00;99.90
26982;DHT22;14533;50.848;4.380;2022-11-04T05:07:14;11.10;99.90
26982;DHT22;14533;50.848;4.380;2022-11-04T05:09:40;11.00;99.90
26982;DHT22;14533;50.848;4.380;2022-11-04T05:12:06;11.10;99.90
26982;DHT22;14533;50.848;4.380;2022-11-04T05:14:51;11.20;99.90
26982;DHT22;14533;50.848;4.380;2022-11-04T05:17:17;11.30;99.90
26982;DHT22;14533;50.848;4.380;2022-11-04T05:19:42;11.20;99.90
26982;DHT22;14533;50.848;4.380;2022-11-04T05:22:08;11.10;99.90
26982;DHT22;14533;50.848;4.380;2022-11-04T05:24:34;11.10;99.90
26982;DHT22;14533;50.848;4.380;2022-11-04T05:26:59;10.90;99.90
26982;DHT22;14533;50.848;4.380;2022-11-04T05:29:25;10.90;99.90
26982;DHT22;14533;50.848;4.380;2022-11-04T05:31:50;10.90;99.90
26982;DHT22;14533;50.848;4.380;2022-11-04T05:34:16;10.90;99.90
26982;DHT22;14533;50.848;4.380;2022-11-04T05:36:41;10.80;99.90
26982;DHT22;14533;50.848;4.380;2022-11-04T05:39:09;10.90;99.90
26982;DHT22;14533;50.848;4.380;2022-11-04T05:41:35;10.90;99.90
26982;DHT22;14533;50.848;4.380;2022-11-04T05:44:02;10.90;99.90
26982;DHT22;14533;50.848;4.380;2022-11-04T05:46:28;10.90;99.90
26982;DHT22;14533;50.848;4.380;2022-11-04T05:48:54;10.80;99.90
26982;DHT22;14533;50.848;4.380;2022-11-04T05:51:23;10.90;99.90
26982;DHT22;14533;50.848;4.380;2022-11-04T05:53:49;10.90;99.90
26982;DHT22;14533;50.848;4.380;2022-11-04T05:56:17;10.80;99.90
26982;DHT22;14533;50.848;4.380;2022-11-04T05:58:43;10.80;99.90
26982;DHT22;14533;50.848;4.380;2022-11-04T06:01:32;10.90;99.90
26982;DHT22;14533;50.848;4.380;2022-11-04T06:03:59;10.90;99.90
26982;DHT22;14533;50.848;4.380;2022-11-04T06:06:28;10.90;99.90
26982;DHT22;14533;50.848;4.380;2022-11-04T06:08:54;10.90;99.90
26982;DHT22;14533;50.848;4.380;2022-11-04T06:11:21;10.80;99.90
26982;DHT22;14533;50.848;4.380;2022-11-04T06:13:48;10.80;99.90
26982;DHT22;14533;50.848;4.380;2022-11-04T06:16:13;10.90;99.90
26982;DHT22;14533;50.848;4.380;2022-11-04T06:18:39;10.90;99.90
26982;DHT22;14533;50.848;4.380;2022-11-04T06:23:43;11.00;99.90
26982;DHT22;14533;50.848;4.380;2022-11-04T06:26:10;11.20;99.90
26982;DHT22;14533;50.848;4.380;2022-11-04T06:28:36;11.10;99.90
26982;DHT22;14533;50.848;4.380;2022-11-04T06:31:04;11.10;99.90
26982;DHT22;14533;50.848;4.380;2022-11-04T06:33:32;11.10;99.90
26982;DHT22;14533;50.848;4.380;2022-11-04T06:36:02;11.20;99.90
26982;DHT22;14533;50.848;4.380;2022-11-04T06:38:32;11.30;99.90
26982;DHT22;14533;50.848;4.380;2022-11-04T06:40:59;11.40;99.90
26982;DHT22;14533;50.848;4.380;2022-11-04T06:43:24;11.30;99.90
26982;DHT22;14533;50.848;4.380;2022-11-04T06:45:58;11.30;99.90
26982;DHT22;14533;50.848;4.380;2022-11-04T06:48:26;11.20;99.90
26982;DHT22;14533;50.848;4.380;2022-11-04T06:50:56;11.20;99.90
26982;DHT22;14533;50.848;4.380;2022-11-04T06:53:22;11.10;99.90
26982;DHT22;14533;50.848;4.380;2022-11-04T06:55:48;11.10;99.90
26982;DHT22;14533;50.848;4.380;2022-11-04T06:58:14;11.10;99.90
26982;DHT22;14533;50.848;4.380;2022-11-04T07:00:39;11.10;99.90
26982;DHT22;14533;50.848;4.380;2022-11-04T07:03:05;11.10;99.90
26982;DHT22;14533;50.848;4.380;2022-11-04T07:05:33;11.10;99.90
26982;DHT22;14533;50.848;4.380;2022-11-04T07:07:59;11.10;99.90
26982;DHT22;14533;50.848;4.380;2022-11-04T07:10:24;11.10;99.90
26982;DHT22;14533;50.848;4.380;2022-11-04T07:12:50;11.20;99.90
26982;DHT22;14533;50.848;4.380;2022-11-04T07:15:16;11.30;99.90
26982;DHT22;14533;50.848;4.380;2022-11-04T07:17:41;11.20;99.90
26982;DHT22;14533;50.848;4.380;2022-11-04T07:20:09;11.30;99.90
26982;DHT22;14533;50.848;4.380;2022-11-04T07:22:37;11.30;99.90
26982;DHT22;14533;50.848;4.380;2022-11-04T07:25:04;11.40;99.90
26982;DHT22;14533;50.848;4.380;2022-11-04T07:27:30;11.30;99.90
26982;DHT22;14533;50.848;4.380;2022-11-04T07:29:56;11.30;99.90
26982;DHT22;14533;50.848;4.380;2022-11-04T07:32:21;11.30;99.90
26982;DHT22;14533;50.848;4.380;2022-11-04T07:34:47;11.40;99.90
26982;DHT22;14533;50.848;4.380;2022-11-04T07:37:13;11.50;99.90
26982;DHT22;14533;50.848;4.380;2022-11-04T07:39:38;11.40;99.90
26982;DHT22;14533;50.848;4.380;2022-11-04T07:42:06;11.40;99.90
26982;DHT22;14533;50.848;4.380;2022-11-04T07:44:34;11.40;99.90
26982;DHT22;14533;50.848;4.380;2022-11-04T07:47:00;11.70;99.90
26982;DHT22;14533;50.848;4.380;2022-11-04T07:49:27;11.60;99.90
26982;DHT22;14533;50.848;4.380;2022-11-04T07:51:53;11.80;99.90
26982;DHT22;14533;50.848;4.380;2022-11-04T07:54:19;11.80;99.90
26982;DHT22;14533;50.848;4.380;2022-11-04T07:56:45;11.70;99.90
26982;DHT22;14533;50.848;4.380;2022-11-04T07:59:10;11.70;99.90
26982;DHT22;14533;50.848;4.380;2022-11-04T08:01:36;11.70;99.90
26982;DHT22;14533;50.848;4.380;2022-11-04T08:04:01;11.80;99.90
26982;DHT22;14533;50.848;4.380;2022-11-04T08:06:31;11.80;99.90
26982;DHT22;14533;50.848;4.380;2022-11-04T08:08:58;12.30;99.90
26982;DHT22;14533;50.848;4.380;2022-11-04T08:11:24;12.30;99.90
26982;DHT22;14533;50.848;4.380;2022-11-04T08:13:54;12.40;99.90
26982;DHT22;14533;50.848;4.380;2022-11-04T08:16:22;12.40;99.90
26982;DHT22;14533;50.848;4.380;2022-11-04T08:18:49;12.40;99.90
26982;DHT22;14533;50.848;4.380;2022-11-04T08:21:16;12.40;99.90
26982;DHT22;14533;50.848;4.380;2022-11-04T08:23:43;12.40;99.90
26982;DHT22;14533;50.848;4.380;2022-11-04T08:26:14;12.50;99.90
26982;DHT22;14533;50.848;4.380;2022-11-04T08:28:42;12.70;99.90
26982;DHT22;14533;50.848;4.380;2022-11-04T08:33:42;12.30;99.90
26982;DHT22;14533;50.848;4.380;2022-11-04T08:36:23;12.10;99.90
26982;DHT22;14533;50.848;4.380;2022-11-04T08:38:49;12.10;99.90
26982;DHT22;14533;50.848;4.380;2022-11-04T08:41:17;12.30;99.90
26982;DHT22;14533;50.848;4.380;2022-11-04T08:43:44;12.50;99.90
26982;DHT22;14533;50.848;4.380;2022-11-04T08:46:12;12.60;99.90
26982;DHT22;14533;50.848;4.380;2022-11-04T08:48:39;12.70;99.90
26982;DHT22;14533;50.848;4.380;2022-11-04T08:51:13;12.60;99.90
26982;DHT22;14533;50.848;4.380;2022-11-04T08:53:39;12.60;99.90
26982;DHT22;14533;50.848;4.380;2022-11-04T08:56:26;12.60;99.90
26982;DHT22;14533;50.848;4.380;2022-11-04T08:58:52;12.70;99.90
26982;DHT22;14533;50.848;4.380;2022-11-04T09:01:19;12.80;99.90
26982;DHT22;14533;50.848;4.380;2022-11-04T09:03:45;12.70;99.90
26982;DHT22;14533;50.848;4.380;2022-11-04T09:06:14;12.60;99.90
26982;DHT22;14533;50.848;4.380;2022-11-04T09:08:41;12.80;99.90
26982;DHT22;14533;50.848;4.380;2022-11-04T09:11:10;12.70;99.90
26982;DHT22;14533;50.848;4.380;2022-11-04T09:13:37;12.80;99.90
26982;DHT22;14533;50.848;4.380;2022-11-04T09:16:03;12.80;99.90
26982;DHT22;14533;50.848;4.380;2022-11-04T09:18:30;12.70;99.90
26982;DHT22;14533;50.848;4.380;2022-11-04T09:21:00;12.80;99.90
26982;DHT22;14533;50.848;4.380;2022-11-04T09:23:27;12.80;99.90
26982;DHT22;14533;50.848;4.380;2022-11-04T09:25:53;12.60;99.90
26982;DHT22;14533;50.848;4.380;2022-11-04T09:28:20;12.60;99.90
26982;DHT22;14533;50.848;4.380;2022-11-04T09:30:46;12.70;99.90
26982;DHT22;14533;50.848;4.380;2022-11-04T09:33:17;12.90;99.90
26982;DHT22;14533;50.848;4.380;2022-11-04T09:35:42;12.90;99.90
26982;DHT22;14533;50.848;4.380;2022-11-04T09:38:09;13.00;99.90
26982;DHT22;14533;50.848;4.380;2022-11-04T09:40:35;13.10;99.90
26982;DHT22;14533;50.848;4.380;2022-11-04T09:43:12;13.10;99.90
26982;DHT22;14533;50.848;4.380;2022-11-04T09:45:41;13.20;99.90
26982;DHT22;14533;50.848;4.380;2022-11-04T09:48:13;13.30;99.90
26982;DHT22;14533;50.848;4.380;2022-11-04T09:51:03;13.20;99.90
26982;DHT22;14533;50.848;4.380;2022-11-04T09:53:41;13.10;99.90
26982;DHT22;14533;50.848;4.380;2022-11-04T09:58:41;13.40;99.90
26982;DHT22;14533;50.848;4.380;2022-11-04T10:01:25;13.50;99.90
26982;DHT22;14533;50.848;4.380;2022-11-04T10:14:37;13.00;99.90
26982;DHT22;14533;50.848;4.380;2022-11-04T10:17:27;12.80;99.90
26982;DHT22;14533;50.848;4.380;2022-11-04T10:25:32;13.30;99.90
26982;DHT22;14533;50.848;4.380;2022-11-04T10:28:01;13.40;99.90
26982;DHT22;14533;50.848;4.380;2022-11-04T10:30:27;13.40;99.90
26982;DHT22;14533;50.848;4.380;2022-11-04T10:35:44;13.50;99.90
26982;DHT22;14533;50.848;4.380;2022-11-04T10:38:33;13.50;99.90
26982;DHT22;14533;50.848;4.380;2022-11-04T10:41:01;13.40;99.90
26982;DHT22;14533;50.848;4.380;2022-11-04T10:43:35;13.40;99.90
26982;DHT22;14533;50.848;4.380;2022-11-04T10:46:34;13.50;99.90
26982;DHT22;14533;50.848;4.380;2022-11-04T10:51:54;13.10;99.90
26982;DHT22;14533;50.848;4.380;2022-11-04T10:54:25;13.00;99.90
26982;DHT22;14533;50.848;4.380;2022-11-04T10:56:55;13.00;99.90
26982;DHT22;14533;50.848;4.380;2022-11-04T10:59:26;13.10;99.90
26982;DHT22;14533;50.848;4.380;2022-11-04T11:02:00;13.20;99.90
26982;DHT22;14533;50.848;4.380;2022-11-04T11:04:36;13.20;99.90
26982;DHT22;14533;50.848;4.380;2022-11-04T11:07:09;13.20;99.90
26982;DHT22;14533;50.848;4.380;2022-11-04T11:12:17;13.00;99.90
26982;DHT22;14533;50.848;4.380;2022-11-04T11:14:44;13.20;99.90
26982;DHT22;14533;50.848;4.380;2022-11-04T11:17:18;13.20;99.90
26982;DHT22;14533;50.848;4.380;2022-11-04T11:22:36;13.10;99.90
26982;DHT22;14533;50.848;4.380;2022-11-04T11:27:47;13.50;99.90
26982;DHT22;14533;50.848;4.380;2022-11-04T11:30:28;13.60;99.90
26982;DHT22;14533;50.848;4.380;2022-11-04T11:33:16;13.50;99.90
26982;DHT22;14533;50.848;4.380;2022-11-04T11:35:51;13.50;99.90
26982;DHT22;14533;50.848;4.380;2022-11-04T11:38:24;13.40;99.90
26982;DHT22;14533;50.848;4.380;2022-11-04T11:40:52;13.50;99.90
26982;DHT22;14533;50.848;4.380;2022-11-04T11:43:29;13.60;99.90
26982;DHT22;14533;50.848;4.380;2022-11-04T11:45:55;13.70;99.90
26982;DHT22;14533;50.848;4.380;2022-11-04T11:48:28;13.90;99.90
26982;DHT22;14533;50.848;4.380;2022-11-04T11:50:56;14.00;99.90
26982;DHT22;14533;50.848;4.380;2022-11-04T11:53:26;14.00;99.90
26982;DHT22;14533;50.848;4.380;2022-11-04T11:58:52;14.40;99.90
26982;DHT22;14533;50.848;4.380;2022-11-04T12:01:44;14.30;99.90
26982;DHT22;14533;50.848;4.380;2022-11-04T12:04:11;14.10;99.90
26982;DHT22;14533;50.848;4.380;2022-11-04T12:06:50;14.10;99.90
26982;DHT22;14533;50.848;4.380;2022-11-04T12:15:08;14.00;99.90
26982;DHT22;14533;50.848;4.380;2022-11-04T12:23:02;14.10;99.90
26982;DHT22;14533;50.848;4.380;2022-11-04T12:39:18;14.10;99.90
26982;DHT22;14533;50.848;4.380;2022-11-04T12:47:56;14.30;99.90
26982;DHT22;14533;50.848;4.380;2022-11-04T12:53:21;14.40;99.90
26982;DHT22;14533;50.848;4.380;2022-11-04T12:56:09;14.40;99.90
26982;DHT22;14533;50.848;4.380;2022-11-04T13:02:12;14.40;99.90
26982;DHT22;14533;50.848;4.380;2022-11-04T13:07:42;14.00;99.90
26982;DHT22;14533;50.848;4.380;2022-11-04T13:10:24;13.70;99.90
26982;DHT22;14533;50.848;4.380;2022-11-04T13:12:52;14.00;99.90
26982;DHT22;14533;50.848;4.380;2022-11-04T13:15:22;14.20;99.90
26982;DHT22;14533;50.848;4.380;2022-11-04T13:17:52;14.30;99.90
26982;DHT22;14533;50.848;4.380;2022-11-04T13:20:38;14.20;99.90
26982;DHT22;14533;50.848;4.380;2022-11-04T13:23:15;14.10;99.90
26982;DHT22;14533;50.848;4.380;2022-11-04T13:25:46;14.00;99.90
26982;DHT22;14533;50.848;4.380;2022-11-04T13:28:15;14.00;99.90
26982;DHT22;14533;50.848;4.380;2022-11-04T13:31:03;14.00;99.90
26982;DHT22;14533;50.848;4.380;2022-11-04T13:34:05;13.90;99.90
26982;DHT22;14533;50.848;4.380;2022-11-04T13:36:44;13.60;99.90
26982;DHT22;14533;50.848;4.380;2022-11-04T13:39:30;13.80;99.90
26982;DHT22;14533;50.848;4.380;2022-11-04T13:44:38;14.20;99.90
26982;DHT22;14533;50.848;4.380;2022-11-04T13:47:14;14.20;99.90
26982;DHT22;14533;50.848;4.380;2022-11-04T13:49:48;14.10;99.90
26982;DHT22;14533;50.848;4.380;2022-11-04T13:52:14;14.10;99.90
26982;DHT22;14533;50.848;4.380;2022-11-04T13:54:44;14.00;99.90
26982;DHT22;14533;50.848;4.380;2022-11-04T13:59:41;14.00;99.90
26982;DHT22;14533;50.848;4.380;2022-11-04T14:04:38;13.60;99.90
26982;DHT22;14533;50.848;4.380;2022-11-04T14:07:09;13.40;99.90
26982;DHT22;14533;50.848;4.380;2022-11-04T14:15:02;14.00;99.90
26982;DHT22;14533;50.848;4.380;2022-11-04T14:22:49;14.20;99.90
26982;DHT22;14533;50.848;4.380;2022-11-04T14:30:57;14.10;99.90
26982;DHT22;14533;50.848;4.380;2022-11-04T14:33:56;13.80;99.90
26982;DHT22;14533;50.848;4.380;2022-11-04T14:41:55;13.00;99.90
26982;DHT22;14533;50.848;4.380;2022-11-04T14:44:46;13.00;99.90
26982;DHT22;14533;50.848;4.380;2022-11-04T14:47:29;12.90;99.90
26982;DHT22;14533;50.848;4.380;2022-11-04T14:54:56;13.10;99.90
26982;DHT22;14533;50.848;4.380;2022-11-04T14:57:23;13.20;99.90
26982;DHT22;14533;50.848;4.380;2022-11-04T14:59:49;13.10;99.90
26982;DHT22;14533;50.848;4.380;2022-11-04T15:02:28;13.10;99.90
26982;DHT22;14533;50.848;4.380;2022-11-04T15:04:58;13.10;99.90
26982;DHT22;14533;50.848;4.380;2022-11-04T15:07:33;13.00;99.90
26982;DHT22;14533;50.848;4.380;2022-11-04T15:10:00;12.80;99.90
26982;DHT22;14533;50.848;4.380;2022-11-04T15:12:27;12.60;99.90
26982;DHT22;14533;50.848;4.380;2022-11-04T15:15:25;12.60;99.90
26982;DHT22;14533;50.848;4.380;2022-11-04T15:18:03;12.70;99.90
26982;DHT22;14533;50.848;4.380;2022-11-04T15:20:30;12.90;99.90
26982;DHT22;14533;50.848;4.380;2022-11-04T15:22:58;13.10;99.90
26982;DHT22;14533;50.848;4.380;2022-11-04T15:25:26;13.10;99.90
26982;DHT22;14533;50.848;4.380;2022-11-04T15:27:51;12.90;99.90
26982;DHT22;14533;50.848;4.380;2022-11-04T15:30:23;12.60;99.90
26982;DHT22;14533;50.848;4.380;2022-11-04T15:32:58;12.60;99.90
26982;DHT22;14533;50.848;4.380;2022-11-04T15:35:31;12.70;99.90
26982;DHT22;14533;50.848;4.380;2022-11-04T15:37:59;12.60;99.90
26982;DHT22;14533;50.848;4.380;2022-11-04T15:40:30;12.70;99.90
26982;DHT22;14533;50.848;4.380;2022-11-04T15:43:01;12.70;99.90
26982;DHT22;14533;50.848;4.380;2022-11-04T15:45:38;12.60;99.90
26982;DHT22;14533;50.848;4.380;2022-11-04T15:48:27;12.50;99.90
26982;DHT22;14533;50.848;4.380;2022-11-04T15:51:18;12.30;99.90
26982;DHT22;14533;50.848;4.380;2022-11-04T15:56:18;12.20;99.90
26982;DHT22;14533;50.848;4.380;2022-11-04T15:58:45;12.30;99.90
26982;DHT22;14533;50.848;4.380;2022-11-04T16:01:16;12.50;99.90
26982;DHT22;14533;50.848;4.380;2022-11-04T16:03:54;12.70;99.90
26982;DHT22;14533;50.848;4.380;2022-11-04T16:06:33;12.70;99.90
26982;DHT22;14533;50.848;4.380;2022-11-04T16:11:36;12.40;99.90
26982;DHT22;14533;50.848;4.380;2022-11-04T16:14:34;12.50;99.90
26982;DHT22;14533;50.848;4.380;2022-11-04T16:16:59;12.70;99.90
26982;DHT22;14533;50.848;4.380;2022-11-04T16:19:28;12.70;99.90
26982;DHT22;14533;50.848;4.380;2022-11-04T16:22:07;12.50;99.90
26982;DHT22;14533;50.848;4.380;2022-11-04T16:24:36;12.30;99.90
26982;DHT22;14533;50.848;4.380;2022-11-04T16:27:09;12.20;99.90
26982;DHT22;14533;50.848;4.380;2022-11-04T16:29:37;12.10;99.90
26982;DHT22;14533;50.848;4.380;2022-11-04T16:32:17;12.00;99.90
26982;DHT22;14533;50.848;4.380;2022-11-04T16:34:47;12.10;99.90
26982;DHT22;14533;50.848;4.380;2022-11-04T16:37:13;12.10;99.90
26982;DHT22;14533;50.848;4.380;2022-11-04T16:39:39;12.00;99.90
26982;DHT22;14533;50.848;4.380;2022-11-04T16:42:09;12.00;99.90
26982;DHT22;14533;50.848;4.380;2022-11-04T16:44:37;11.90;99.90
26982;DHT22;14533;50.848;4.380;2022-11-04T16:47:02;12.00;99.90
26982;DHT22;14533;50.848;4.380;2022-11-04T16:49:29;12.00;99.90
26982;DHT22;14533;50.848;4.380;2022-11-04T16:52:00;11.90;99.90
26982;DHT22;14533;50.848;4.380;2022-11-04T16:54:26;11.90;99.90
26982;DHT22;14533;50.848;4.380;2022-11-04T16:56:53;12.10;99.90
26982;DHT22;14533;50.848;4.380;2022-11-04T16:59:19;12.10;99.90
26982;DHT22;14533;50.848;4.380;2022-11-04T17:01:44;12.10;99.90
26982;DHT22;14533;50.848;4.380;2022-11-04T17:04:10;12.20;99.90
26982;DHT22;14533;50.848;4.380;2022-11-04T17:06:36;12.30;99.90
26982;DHT22;14533;50.848;4.380;2022-11-04T17:09:15;12.30;99.90
26982;DHT22;14533;50.848;4.380;2022-11-04T17:11:43;12.20;99.90
26982;DHT22;14533;50.848;4.380;2022-11-04T17:14:09;12.40;99.90
26982;DHT22;14533;50.848;4.380;2022-11-04T17:16:34;12.80;99.90
26982;DHT22;14533;50.848;4.380;2022-11-04T17:19:01;12.80;99.90
26982;DHT22;14533;50.848;4.380;2022-11-04T17:21:27;12.90;99.90
26982;DHT22;14533;50.848;4.380;2022-11-04T17:23:53;12.90;99.90
26982;DHT22;14533;50.848;4.380;2022-11-04T17:26:20;12.60;99.90
26982;DHT22;14533;50.848;4.380;2022-11-04T17:28:46;12.50;99.90
26982;DHT22;14533;50.848;4.380;2022-11-04T17:31:20;12.30;99.90
26982;DHT22;14533;50.848;4.380;2022-11-04T17:33:46;12.30;99.90
26982;DHT22;14533;50.848;4.380;2022-11-04T17:36:17;12.30;99.90
26982;DHT22;14533;50.848;4.380;2022-11-04T17:38:43;12.40;99.90
26982;DHT22;14533;50.848;4.380;2022-11-04T17:41:10;12.30;99.90
26982;DHT22;14533;50.848;4.380;2022-11-04T17:43:54;12.30;99.90
26982;DHT22;14533;50.848;4.380;2022-11-04T17:46:30;12.20;99.90
26982;DHT22;14533;50.848;4.380;2022-11-04T17:49:22;12.10;99.90
26982;DHT22;14533;50.848;4.380;2022-11-04T17:51:53;12.20;99.90
26982;DHT22;14533;50.848;4.380;2022-11-04T17:54:21;12.30;99.90
26982;DHT22;14533;50.848;4.380;2022-11-04T17:56:47;12.40;99.90
26982;DHT22;14533;50.848;4.380;2022-11-04T17:59:16;12.30;99.90
26982;DHT22;14533;50.848;4.380;2022-11-04T18:01:43;12.40;99.90
26982;DHT22;14533;50.848;4.380;2022-11-04T18:04:13;12.30;99.90
26982;DHT22;14533;50.848;4.380;2022-11-04T18:06:40;12.20;99.90
26982;DHT22;14533;50.848;4.380;2022-11-04T18:09:06;12.20;99.90
26982;DHT22;14533;50.848;4.380;2022-11-04T18:11:31;12.30;99.90
26982;DHT22;14533;50.848;4.380;2022-11-04T18:14:16;12.30;99.90
26982;DHT22;14533;50.848;4.380;2022-11-04T18:16:44;12.20;99.90
26982;DHT22;14533;50.848;4.380;2022-11-04T18:19:11;12.10;99.90
26982;DHT22;14533;50.848;4.380;2022-11-04T18:21:38;12.10;99.90
26982;DHT22;14533;50.848;4.380;2022-11-04T18:24:04;12.20;99.90
26982;DHT22;14533;50.848;4.380;2022-11-04T18:26:29;12.10;99.90
26982;DHT22;14533;50.848;4.380;2022-11-04T18:28:56;12.00;99.90
26982;DHT22;14533;50.848;4.380;2022-11-04T18:31:28;11.80;99.90
26982;DHT22;14533;50.848;4.380;2022-11-04T18:33:58;11.70;99.90
26982;DHT22;14533;50.848;4.380;2022-11-04T18:36:25;11.80;99.90